sensor_id;sensor_type;location;lat;lon;timestamp;temperature;humidity
73643;DHT22;61938;48.652;9.292;2023-04-19T00:01:15;9.50;99.90
73643;DHT22;61938;48.652;9.292;2023-04-19T00:03:40;9.50;99.90
73643;DHT22;61938;48.652;9.292;2023-04-19T00:06:06;9.50;99.90
73643;DHT22;61938;48.652;9.292;2023-04-19T00:08:33;9.50;99.90
73643;DHT22;61938;48.652;9.292;2023-04-19T00:10:58;9.50;99.90
73643;DHT22;61938;48.652;9.292;2023-04-19T00:13:24;9.40;99.90
73643;DHT22;61938;48.652;9.292;2023-04-19T00:15:49;9.50;99.90
73643;DHT22;61938;48.652;9.292;2023-04-19T00:18:15;9.40;99.90
73643;DHT22;61938;48.652;9.292;2023-04-19T00:20:40;9.40;99.90
73643;DHT22;61938;48.652;9.292;2023-04-19T00:23:06;9.40;99.90
73643;DHT22;61938;48.652;9.292;2023-04-19T00:25:31;9.40;99.90
73643;DHT22;61938;48.652;9.292;2023-04-19T00:27:59;9.40;99.90
73643;DHT22;61938;48.652;9.292;2023-04-19T00:30:24;9.40;99.90
73643;DHT22;61938;48.652;9.292;2023-04-19T00:32:50;9.40;99.90
73643;DHT22;61938;48.652;9.292;2023-04-19T00:35:15;9.40;99.90
73643;DHT22;61938;48.652;9.292;2023-04-19T00:37:41;9.40;99.90
73643;DHT22;61938;48.652;9.292;2023-04-19T00:40:07;9.40;99.90
73643;DHT22;61938;48.652;9.292;2023-04-19T00:42:33;9.30;99.90
73643;DHT22;61938;48.652;9.292;2023-04-19T00:44:58;9.30;99.90
73643;DHT22;61938;48.652;9.292;2023-04-19T00:47:24;9.30;99.90
73643;DHT22;61938;48.652;9.292;2023-04-19T00:49:49;9.30;99.90
73643;DHT22;61938;48.652;9.292;2023-04-19T00:52:15;9.30;99.90
73643;DHT22;61938;48.652;9.292;2023-04-19T00:54:41;9.30;99.90
73643;DHT22;61938;48.652;9.292;2023-04-19T00:57:07;9.30;99.90
73643;DHT22;61938;48.652;9.292;2023-04-19T00:59:33;9.30;99.90
73643;DHT22;61938;48.652;9.292;2023-04-19T01:01:59;9.30;99.90
73643;DHT22;61938;48.652;9.292;2023-04-19T01:04:24;9.30;99.90
73643;DHT22;61938;48.652;9.292;2023-04-19T01:06:50;9.30;99.90
73643;DHT22;61938;48.652;9.292;2023-04-19T01:09:16;9.30;99.90
73643;DHT22;61938;48.652;9.292;2023-04-19T01:11:41;9.40;99.90
73643;DHT22;61938;48.652;9.292;2023-04-19T01:14:07;9.30;99.90
73643;DHT22;61938;48.652;9.292;2023-04-19T01:16:32;9.30;99.90
73643;DHT22;61938;48.652;9.292;2023-04-19T01:18:58;9.30;99.90
73643;DHT22;61938;48.652;9.292;2023-04-19T01:21:23;9.30;99.90
73643;DHT22;61938;48.652;9.292;2023-04-19T01:23:49;9.30;99.90
73643;DHT22;61938;48.652;9.292;2023-04-19T01:26:15;9.30;99.90
73643;DHT22;61938;48.652;9.292;2023-04-19T01:28:40;9.20;99.90
73643;DHT22;61938;48.652;9.292;2023-04-19T01:31:06;9.20;99.90
73643;DHT22;61938;48.652;9.292;2023-04-19T01:33:31;9.20;99.90
73643;DHT22;61938;48.652;9.292;2023-04-19T01:35:57;9.20;99.90
73643;DHT22;61938;48.652;9.292;2023-04-19T01:38:22;9.20;99.90
73643;DHT22;61938;48.652;9.292;2023-04-19T01:40:48;9.20;99.90
73643;DHT22;61938;48.652;9.292;2023-04-19T01:43:16;9.20;99.90
73643;DHT22;61938;48.652;9.292;2023-04-19T01:45:43;9.20;99.90
73643;DHT22;61938;48.652;9.292;2023-04-19T01:48:08;9.20;99.90
73643;DHT22;61938;48.652;9.292;2023-04-19T01:50:34;9.20;99.90
73643;DHT22;61938;48.652;9.292;2023-04-19T01:52:59;9.20;99.90
73643;DHT22;61938;48.652;9.292;2023-04-19T01:55:25;9.20;99.90
73643;DHT22;61938;48.652;9.292;2023-04-19T01:57:51;9.20;99.90
73643;DHT22;61938;48.652;9.292;2023-04-19T02:00:20;9.20;99.90
73643;DHT22;61938;48.652;9.292;2023-04-19T02:02:46;9.20;99.90
73643;DHT22;61938;48.652;9.292;2023-04-19T02:05:12;9.10;99.90
73643;DHT22;61938;48.652;9.292;2023-04-19T02:07:37;9.10;99.90
73643;DHT22;61938;48.652;9.292;2023-04-19T02:10:04;9.10;99.90
73643;DHT22;61938;48.652;9.292;2023-04-19T02:12:30;9.10;99.90
73643;DHT22;61938;48.652;9.292;2023-04-19T02:14:56;9.10;99.90
73643;DHT22;61938;48.652;9.292;2023-04-19T02:17:22;9.10;99.90
73643;DHT22;61938;48.652;9.292;2023-04-19T02:19:48;9.10;99.90
73643;DHT22;61938;48.652;9.292;2023-04-19T02:22:13;9.10;99.90
73643;DHT22;61938;48.652;9.292;2023-04-19T02:24:39;9.10;99.90
73643;DHT22;61938;48.652;9.292;2023-04-19T02:27:04;9.00;99.90
73643;DHT22;61938;48.652;9.292;2023-04-19T02:29:30;9.10;99.90
73643;DHT22;61938;48.652;9.292;2023-04-19T02:31:56;9.00;99.90
73643;DHT22;61938;48.652;9.292;2023-04-19T02:34:22;9.00;99.90
73643;DHT22;61938;48.652;9.292;2023-04-19T02:36:47;9.00;99.90
73643;DHT22;61938;48.652;9.292;2023-04-19T02:39:13;9.00;99.90
73643;DHT22;61938;48.652;9.292;2023-04-19T02:41:38;9.00;99.90
73643;DHT22;61938;48.652;9.292;2023-04-19T02:44:04;8.90;99.90
73643;DHT22;61938;48.652;9.292;2023-04-19T02:46:30;8.90;99.90
73643;DHT22;61938;48.652;9.292;2023-04-19T02:48:55;8.90;99.90
73643;DHT22;61938;48.652;9.292;2023-04-19T02:51:21;9.00;99.90
73643;DHT22;61938;48.652;9.292;2023-04-19T02:53:46;8.90;99.90
73643;DHT22;61938;48.652;9.292;2023-04-19T02:56:12;8.90;99.90
73643;DHT22;61938;48.652;9.292;2023-04-19T02:58:37;8.90;99.90
73643;DHT22;61938;48.652;9.292;2023-04-19T03:01:03;8.90;99.90
73643;DHT22;61938;48.652;9.292;2023-04-19T03:03:28;8.90;99.90
73643;DHT22;61938;48.652;9.292;2023-04-19T03:05:53;8.90;99.90
73643;DHT22;61938;48.652;9.292;2023-04-19T03:08:19;8.90;99.90
73643;DHT22;61938;48.652;9.292;2023-04-19T03:10:45;8.80;99.90
73643;DHT22;61938;48.652;9.292;2023-04-19T03:13:10;8.80;99.90
73643;DHT22;61938;48.652;9.292;2023-04-19T03:15:36;8.80;99.90
73643;DHT22;61938;48.652;9.292;2023-04-19T03:18:01;8.80;99.90
73643;DHT22;61938;48.652;9.292;2023-04-19T03:20:27;8.70;99.90
73643;DHT22;61938;48.652;9.292;2023-04-19T03:22:52;8.80;99.90
73643;DHT22;61938;48.652;9.292;2023-04-19T03:25:18;8.70;99.90
73643;DHT22;61938;48.652;9.292;2023-04-19T03:27:43;8.70;99.90
73643;DHT22;61938;48.652;9.292;2023-04-19T03:30:11;8.70;99.90
73643;DHT22;61938;48.652;9.292;2023-04-19T03:32:37;8.70;99.90
73643;DHT22;61938;48.652;9.292;2023-04-19T03:35:02;8.70;99.90
73643;DHT22;61938;48.652;9.292;2023-04-19T03:37:28;8.60;99.90
73643;DHT22;61938;48.652;9.292;2023-04-19T03:39:53;8.60;99.90
73643;DHT22;61938;48.652;9.292;2023-04-19T03:42:19;8.60;99.90
73643;DHT22;61938;48.652;9.292;2023-04-19T03:44:45;8.60;99.90
73643;DHT22;61938;48.652;9.292;2023-04-19T03:47:10;8.50;99.90
73643;DHT22;61938;48.652;9.292;2023-04-19T03:49:36;8.40;99.90
73643;DHT22;61938;48.652;9.292;2023-04-19T03:52:01;8.40;99.90
73643;DHT22;61938;48.652;9.292;2023-04-19T03:54:27;8.30;99.90
73643;DHT22;61938;48.652;9.292;2023-04-19T03:56:52;8.30;99.90
73643;DHT22;61938;48.652;9.292;2023-04-19T03:59:18;8.20;99.90
73643;DHT22;61938;48.652;9.292;2023-04-19T04:01:44;8.20;99.90
73643;DHT22;61938;48.652;9.292;2023-04-19T04:04:10;8.10;99.90
73643;DHT22;61938;48.652;9.292;2023-04-19T04:06:38;8.10;99.90
73643;DHT22;61938;48.652;9.292;2023-04-19T04:09:04;8.00;99.90
73643;DHT22;61938;48.652;9.292;2023-04-19T04:11:29;8.00;99.90
73643;DHT22;61938;48.652;9.292;2023-04-19T04:13:55;8.00;99.90
73643;DHT22;61938;48.652;9.292;2023-04-19T04:16:21;8.00;99.90
73643;DHT22;61938;48.652;9.292;2023-04-19T04:18:47;8.00;99.90
73643;DHT22;61938;48.652;9.292;2023-04-19T04:21:12;8.00;99.90
73643;DHT22;61938;48.652;9.292;2023-04-19T04:23:37;8.00;99.90
73643;DHT22;61938;48.652;9.292;2023-04-19T04:26:03;7.90;99.90
73643;DHT22;61938;48.652;9.292;2023-04-19T04:28:30;7.90;99.90
73643;DHT22;61938;48.652;9.292;2023-04-19T04:30:56;7.80;99.90
73643;DHT22;61938;48.652;9.292;2023-04-19T04:33:26;7.80;99.90
73643;DHT22;61938;48.652;9.292;2023-04-19T04:35:53;7.80;99.90
73643;DHT22;61938;48.652;9.292;2023-04-19T04:38:19;7.70;99.90
73643;DHT22;61938;48.652;9.292;2023-04-19T04:40:49;7.70;99.90
73643;DHT22;61938;48.652;9.292;2023-04-19T04:43:15;7.60;99.90
73643;DHT22;61938;48.652;9.292;2023-04-19T04:45:40;7.60;99.90
73643;DHT22;61938;48.652;9.292;2023-04-19T04:48:08;7.60;99.90
73643;DHT22;61938;48.652;9.292;2023-04-19T04:50:34;7.50;99.90
73643;DHT22;61938;48.652;9.292;2023-04-19T04:52:59;7.50;99.90
73643;DHT22;61938;48.652;9.292;2023-04-19T04:55:25;7.50;99.90
73643;DHT22;61938;48.652;9.292;2023-04-19T04:57:50;7.60;99.90
73643;DHT22;61938;48.652;9.292;2023-04-19T05:00:16;7.50;99.90
73643;DHT22;61938;48.652;9.292;2023-04-19T05:02:42;7.50;99.90
73643;DHT22;61938;48.652;9.292;2023-04-19T05:05:07;7.50;99.90
73643;DHT22;61938;48.652;9.292;2023-04-19T05:07:35;7.50;99.90
73643;DHT22;61938;48.652;9.292;2023-04-19T05:10:01;7.60;99.90
73643;DHT22;61938;48.652;9.292;2023-04-19T05:12:26;7.60;99.90
73643;DHT22;61938;48.652;9.292;2023-04-19T05:14:52;7.60;99.90
73643;DHT22;61938;48.652;9.292;2023-04-19T05:17:17;7.70;99.90
73643;DHT22;61938;48.652;9.292;2023-04-19T05:19:43;7.70;99.90
73643;DHT22;61938;48.652;9.292;2023-04-19T05:22:08;7.80;99.90
73643;DHT22;61938;48.652;9.292;2023-04-19T05:24:34;7.80;99.90
73643;DHT22;61938;48.652;9.292;2023-04-19T05:26:59;7.80;99.90
73643;DHT22;61938;48.652;9.292;2023-04-19T05:29:26;7.90;99.90
73643;DHT22;61938;48.652;9.292;2023-04-19T05:31:51;7.90;99.90
73643;DHT22;61938;48.652;9.292;2023-04-19T05:34:17;8.00;99.90
73643;DHT22;61938;48.652;9.292;2023-04-19T05:36:42;8.20;99.90
73643;DHT22;61938;48.652;9.292;2023-04-19T05:39:08;8.10;99.90
73643;DHT22;61938;48.652;9.292;2023-04-19T05:41:34;8.20;99.90
73643;DHT22;61938;48.652;9.292;2023-04-19T05:43:59;8.20;99.90
73643;DHT22;61938;48.652;9.292;2023-04-19T05:46:25;8.20;99.90
73643;DHT22;61938;48.652;9.292;2023-04-19T05:48:50;8.20;99.90
73643;DHT22;61938;48.652;9.292;2023-04-19T05:51:16;8.30;99.90
73643;DHT22;61938;48.652;9.292;2023-04-19T05:53:43;8.30;99.90
73643;DHT22;61938;48.652;9.292;2023-04-19T05:56:09;8.30;99.90
73643;DHT22;61938;48.652;9.292;2023-04-19T05:58:35;8.30;99.90
73643;DHT22;61938;48.652;9.292;2023-04-19T06:01:01;8.30;99.90
73643;DHT22;61938;48.652;9.292;2023-04-19T06:03:27;8.40;99.90
73643;DHT22;61938;48.652;9.292;2023-04-19T06:05:52;8.40;99.90
73643;DHT22;61938;48.652;9.292;2023-04-19T06:08:18;8.50;99.90
73643;DHT22;61938;48.652;9.292;2023-04-19T06:10:44;8.60;99.90
73643;DHT22;61938;48.652;9.292;2023-04-19T06:13:12;8.60;99.90
73643;DHT22;61938;48.652;9.292;2023-04-19T06:15:38;8.60;99.90
73643;DHT22;61938;48.652;9.292;2023-04-19T06:18:04;8.60;99.90
73643;DHT22;61938;48.652;9.292;2023-04-19T06:20:37;8.70;99.90
73643;DHT22;61938;48.652;9.292;2023-04-19T06:23:03;8.60;99.90
73643;DHT22;61938;48.652;9.292;2023-04-19T06:25:29;8.60;99.90
73643;DHT22;61938;48.652;9.292;2023-04-19T06:27:54;8.70;99.90
73643;DHT22;61938;48.652;9.292;2023-04-19T06:30:20;8.70;99.90
73643;DHT22;61938;48.652;9.292;2023-04-19T06:32:45;8.80;99.90
73643;DHT22;61938;48.652;9.292;2023-04-19T06:35:11;8.80;99.90
73643;DHT22;61938;48.652;9.292;2023-04-19T06:37:36;8.80;99.90
73643;DHT22;61938;48.652;9.292;2023-04-19T06:40:02;8.80;99.90
73643;DHT22;61938;48.652;9.292;2023-04-19T06:42:29;8.90;99.90
73643;DHT22;61938;48.652;9.292;2023-04-19T06:44:55;9.00;99.90
73643;DHT22;61938;48.652;9.292;2023-04-19T06:47:21;9.00;99.90
73643;DHT22;61938;48.652;9.292;2023-04-19T06:49:47;9.10;99.90
73643;DHT22;61938;48.652;9.292;2023-04-19T06:52:12;9.10;99.90
73643;DHT22;61938;48.652;9.292;2023-04-19T06:54:38;9.10;99.90
73643;DHT22;61938;48.652;9.292;2023-04-19T06:57:03;9.20;99.90
73643;DHT22;61938;48.652;9.292;2023-04-19T06:59:29;9.20;99.90
73643;DHT22;61938;48.652;9.292;2023-04-19T07:01:56;9.20;99.90
73643;DHT22;61938;48.652;9.292;2023-04-19T07:04:23;9.20;99.90
73643;DHT22;61938;48.652;9.292;2023-04-19T07:06:48;9.30;99.90
73643;DHT22;61938;48.652;9.292;2023-04-19T07:09:14;9.20;99.90
73643;DHT22;61938;48.652;9.292;2023-04-19T07:11:40;9.20;99.90
73643;DHT22;61938;48.652;9.292;2023-04-19T07:14:05;9.30;99.90
73643;DHT22;61938;48.652;9.292;2023-04-19T07:16:31;9.30;99.90
73643;DHT22;61938;48.652;9.292;2023-04-19T07:18:57;9.30;99.90
73643;DHT22;61938;48.652;9.292;2023-04-19T07:21:22;9.30;99.90
73643;DHT22;61938;48.652;9.292;2023-04-19T07:23:50;9.40;99.90
73643;DHT22;61938;48.652;9.292;2023-04-19T07:26:16;9.40;99.90
73643;DHT22;61938;48.652;9.292;2023-04-19T07:28:42;9.40;99.90
73643;DHT22;61938;48.652;9.292;2023-04-19T07:31:13;9.40;99.90
73643;DHT22;61938;48.652;9.292;2023-04-19T07:33:38;9.50;99.90
73643;DHT22;61938;48.652;9.292;2023-04-19T07:36:04;9.60;99.90
73643;DHT22;61938;48.652;9.292;2023-04-19T07:38:30;9.70;99.90
73643;DHT22;61938;48.652;9.292;2023-04-19T07:40:56;9.80;99.90
73643;DHT22;61938;48.652;9.292;2023-04-19T07:43:21;9.90;99.90
73643;DHT22;61938;48.652;9.292;2023-04-19T07:45:47;10.00;99.90
73643;DHT22;61938;48.652;9.292;2023-04-19T07:48:12;10.00;99.90
73643;DHT22;61938;48.652;9.292;2023-04-19T07:50:38;10.10;99.90
73643;DHT22;61938;48.652;9.292;2023-04-19T07:53:03;10.20;99.90
73643;DHT22;61938;48.652;9.292;2023-04-19T07:55:29;10.30;99.90
73643;DHT22;61938;48.652;9.292;2023-04-19T07:57:54;10.40;99.90
73643;DHT22;61938;48.652;9.292;2023-04-19T08:00:20;10.50;99.90
73643;DHT22;61938;48.652;9.292;2023-04-19T08:02:46;10.50;99.90
73643;DHT22;61938;48.652;9.292;2023-04-19T08:05:13;10.60;99.90
73643;DHT22;61938;48.652;9.292;2023-04-19T08:07:41;10.70;99.90
73643;DHT22;61938;48.652;9.292;2023-04-19T08:10:07;10.80;99.90
73643;DHT22;61938;48.652;9.292;2023-04-19T08:12:33;10.80;99.90
73643;DHT22;61938;48.652;9.292;2023-04-19T08:14:58;12.10;99.90
73643;DHT22;61938;48.652;9.292;2023-04-19T08:17:24;10.80;99.90
73643;DHT22;61938;48.652;9.292;2023-04-19T08:19:50;10.90;99.90
73643;DHT22;61938;48.652;9.292;2023-04-19T08:22:16;10.90;99.90
73643;DHT22;61938;48.652;9.292;2023-04-19T08:24:42;10.90;99.90
73643;DHT22;61938;48.652;9.292;2023-04-19T08:27:09;10.90;99.90
73643;DHT22;61938;48.652;9.292;2023-04-19T08:29:34;10.90;99.90
73643;DHT22;61938;48.652;9.292;2023-04-19T08:32:00;10.90;99.90
73643;DHT22;61938;48.652;9.292;2023-04-19T08:34:26;11.00;99.90
73643;DHT22;61938;48.652;9.292;2023-04-19T08:36:52;11.00;99.90
73643;DHT22;61938;48.652;9.292;2023-04-19T08:39:18;11.00;99.90
73643;DHT22;61938;48.652;9.292;2023-04-19T08:41:43;11.00;99.90
73643;DHT22;61938;48.652;9.292;2023-04-19T08:44:12;11.00;99.90
73643;DHT22;61938;48.652;9.292;2023-04-19T08:46:39;11.00;99.90
73643;DHT22;61938;48.652;9.292;2023-04-19T08:49:06;11.10;99.90
73643;DHT22;61938;48.652;9.292;2023-04-19T08:51:33;11.10;99.90
73643;DHT22;61938;48.652;9.292;2023-04-19T08:54:00;11.20;99.90
73643;DHT22;61938;48.652;9.292;2023-04-19T08:56:28;11.20;99.90
73643;DHT22;61938;48.652;9.292;2023-04-19T08:58:55;11.10;99.90
73643;DHT22;61938;48.652;9.292;2023-04-19T09:01:20;11.10;99.90
73643;DHT22;61938;48.652;9.292;2023-04-19T09:03:46;11.10;99.90
73643;DHT22;61938;48.652;9.292;2023-04-19T09:06:11;11.10;99.90
73643;DHT22;61938;48.652;9.292;2023-04-19T09:08:38;11.10;99.90
73643;DHT22;61938;48.652;9.292;2023-04-19T09:11:05;11.10;99.90
73643;DHT22;61938;48.652;9.292;2023-04-19T09:13:31;11.10;99.90
73643;DHT22;61938;48.652;9.292;2023-04-19T09:15:56;11.10;99.90
73643;DHT22;61938;48.652;9.292;2023-04-19T09:18:24;11.00;99.90
73643;DHT22;61938;48.652;9.292;2023-04-19T09:20:50;11.00;99.90
73643;DHT22;61938;48.652;9.292;2023-04-19T09:23:22;11.00;99.90
73643;DHT22;61938;48.652;9.292;2023-04-19T09:26:00;11.00;99.90
73643;DHT22;61938;48.652;9.292;2023-04-19T09:28:27;11.10;99.90
73643;DHT22;61938;48.652;9.292;2023-04-19T09:30:54;11.30;99.90
73643;DHT22;61938;48.652;9.292;2023-04-19T09:33:37;11.40;99.90
73643;DHT22;61938;48.652;9.292;2023-04-19T09:36:06;11.50;99.90
73643;DHT22;61938;48.652;9.292;2023-04-19T09:38:48;11.60;99.90
73643;DHT22;61938;48.652;9.292;2023-04-19T09:41:14;11.60;99.90
73643;DHT22;61938;48.652;9.292;2023-04-19T09:43:41;11.60;99.90
73643;DHT22;61938;48.652;9.292;2023-04-19T09:46:07;11.70;99.90
73643;DHT22;61938;48.652;9.292;2023-04-19T09:48:32;11.80;99.90
73643;DHT22;61938;48.652;9.292;2023-04-19T09:50:59;11.90;99.90
73643;DHT22;61938;48.652;9.292;2023-04-19T09:53:26;12.10;99.90
73643;DHT22;61938;48.652;9.292;2023-04-19T09:55:52;12.20;99.90
73643;DHT22;61938;48.652;9.292;2023-04-19T09:58:19;12.40;99.90
73643;DHT22;61938;48.652;9.292;2023-04-19T10:00:45;12.40;99.90
73643;DHT22;61938;48.652;9.292;2023-04-19T10:03:15;12.50;99.90
73643;DHT22;61938;48.652;9.292;2023-04-19T10:05:42;12.50;99.90
73643;DHT22;61938;48.652;9.292;2023-04-19T10:08:08;12.60;99.90
73643;DHT22;61938;48.652;9.292;2023-04-19T10:10:34;12.70;99.90
73643;DHT22;61938;48.652;9.292;2023-04-19T10:13:03;12.70;99.90
73643;DHT22;61938;48.652;9.292;2023-04-19T10:15:30;12.90;99.90
73643;DHT22;61938;48.652;9.292;2023-04-19T10:17:56;13.10;99.90
73643;DHT22;61938;48.652;9.292;2023-04-19T10:20:49;13.50;99.90
73643;DHT22;61938;48.652;9.292;2023-04-19T10:23:16;13.60;99.90
73643;DHT22;61938;48.652;9.292;2023-04-19T10:25:45;13.80;99.90
73643;DHT22;61938;48.652;9.292;2023-04-19T10:28:11;13.80;99.90
73643;DHT22;61938;48.652;9.292;2023-04-19T10:30:57;13.60;99.90
73643;DHT22;61938;48.652;9.292;2023-04-19T10:33:27;13.60;99.90
73643;DHT22;61938;48.652;9.292;2023-04-19T10:35:58;13.40;99.90
73643;DHT22;61938;48.652;9.292;2023-04-19T10:38:37;13.30;99.90
73643;DHT22;61938;48.652;9.292;2023-04-19T10:41:03;13.10;99.90
73643;DHT22;61938;48.652;9.292;2023-04-19T10:43:31;13.10;99.90
73643;DHT22;61938;48.652;9.292;2023-04-19T10:45:59;12.90;99.90
73643;DHT22;61938;48.652;9.292;2023-04-19T10:50:59;12.80;99.90
73643;DHT22;61938;48.652;9.292;2023-04-19T10:56:20;13.00;99.90
73643;DHT22;61938;48.652;9.292;2023-04-19T11:01:43;13.20;99.90
73643;DHT22;61938;48.652;9.292;2023-04-19T11:04:18;13.10;99.90
73643;DHT22;61938;48.652;9.292;2023-04-19T11:11:59;12.90;99.90
73643;DHT22;61938;48.652;9.292;2023-04-19T11:14:26;12.80;99.90
73643;DHT22;61938;48.652;9.292;2023-04-19T11:16:54;12.70;99.90
73643;DHT22;61938;48.652;9.292;2023-04-19T11:19:19;12.60;99.90
73643;DHT22;61938;48.652;9.292;2023-04-19T11:21:45;12.50;99.90
73643;DHT22;61938;48.652;9.292;2023-04-19T11:24:11;12.50;99.90
73643;DHT22;61938;48.652;9.292;2023-04-19T11:26:37;12.50;99.90
73643;DHT22;61938;48.652;9.292;2023-04-19T11:29:03;12.40;99.90
73643;DHT22;61938;48.652;9.292;2023-04-19T11:31:33;12.40;99.90
73643;DHT22;61938;48.652;9.292;2023-04-19T11:33:59;12.30;99.90
73643;DHT22;61938;48.652;9.292;2023-04-19T11:36:25;12.30;99.90
73643;DHT22;61938;48.652;9.292;2023-04-19T11:38:52;12.30;99.90
73643;DHT22;61938;48.652;9.292;2023-04-19T11:41:17;12.20;99.90
73643;DHT22;61938;48.652;9.292;2023-04-19T11:43:43;12.20;99.90
73643;DHT22;61938;48.652;9.292;2023-04-19T11:46:11;12.20;99.90
73643;DHT22;61938;48.652;9.292;2023-04-19T11:48:38;12.20;99.90
73643;DHT22;61938;48.652;9.292;2023-04-19T11:51:14;12.10;99.90
73643;DHT22;61938;48.652;9.292;2023-04-19T11:53:39;12.20;99.90
73643;DHT22;61938;48.652;9.292;2023-04-19T11:56:06;12.10;99.90
73643;DHT22;61938;48.652;9.292;2023-04-19T11:58:42;12.00;99.90
73643;DHT22;61938;48.652;9.292;2023-04-19T12:01:13;11.90;99.90
73643;DHT22;61938;48.652;9.292;2023-04-19T12:06:22;11.70;99.90
73643;DHT22;61938;48.652;9.292;2023-04-19T12:08:49;11.60;99.90
73643;DHT22;61938;48.652;9.292;2023-04-19T12:11:17;11.50;99.90
73643;DHT22;61938;48.652;9.292;2023-04-19T12:13:43;11.40;99.90
73643;DHT22;61938;48.652;9.292;2023-04-19T12:16:10;11.40;99.90
73643;DHT22;61938;48.652;9.292;2023-04-19T12:18:49;11.40;99.90
73643;DHT22;61938;48.652;9.292;2023-04-19T12:21:29;11.30;99.90
73643;DHT22;61938;48.652;9.292;2023-04-19T12:23:57;11.30;99.90
73643;DHT22;61938;48.652;9.292;2023-04-19T12:26:24;11.10;99.90
73643;DHT22;61938;48.652;9.292;2023-04-19T12:28:49;11.10;99.90
73643;DHT22;61938;48.652;9.292;2023-04-19T12:31:15;11.10;99.90
73643;DHT22;61938;48.652;9.292;2023-04-19T12:33:41;11.00;99.90
73643;DHT22;61938;48.652;9.292;2023-04-19T12:36:06;11.00;99.90
73643;DHT22;61938;48.652;9.292;2023-04-19T12:38:32;11.00;99.90
73643;DHT22;61938;48.652;9.292;2023-04-19T12:40:57;10.90;99.90
73643;DHT22;61938;48.652;9.292;2023-04-19T12:43:23;10.80;99.90
73643;DHT22;61938;48.652;9.292;2023-04-19T12:45:48;10.70;99.90
73643;DHT22;61938;48.652;9.292;2023-04-19T12:48:14;10.60;99.90
73643;DHT22;61938;48.652;9.292;2023-04-19T12:50:39;10.50;99.90
73643;DHT22;61938;48.652;9.292;2023-04-19T12:53:05;10.40;99.90
73643;DHT22;61938;48.652;9.292;2023-04-19T12:55:31;10.40;99.90
73643;DHT22;61938;48.652;9.292;2023-04-19T12:57:56;10.30;99.90
73643;DHT22;61938;48.652;9.292;2023-04-19T13:00:22;10.30;99.90
73643;DHT22;61938;48.652;9.292;2023-04-19T13:02:48;10.30;99.90
73643;DHT22;61938;48.652;9.292;2023-04-19T13:05:14;10.20;99.90
73643;DHT22;61938;48.652;9.292;2023-04-19T13:07:40;10.20;99.90
73643;DHT22;61938;48.652;9.292;2023-04-19T13:10:06;10.20;99.90
73643;DHT22;61938;48.652;9.292;2023-04-19T13:12:31;10.20;99.90
73643;DHT22;61938;48.652;9.292;2023-04-19T13:14:57;10.10;99.90
73643;DHT22;61938;48.652;9.292;2023-04-19T13:17:22;10.10;99.90
73643;DHT22;61938;48.652;9.292;2023-04-19T13:19:48;10.10;99.90
73643;DHT22;61938;48.652;9.292;2023-04-19T13:22:13;10.00;99.90
73643;DHT22;61938;48.652;9.292;2023-04-19T13:24:40;10.00;99.90
73643;DHT22;61938;48.652;9.292;2023-04-19T13:27:05;9.90;99.90
73643;DHT22;61938;48.652;9.292;2023-04-19T13:29:31;9.80;99.90
73643;DHT22;61938;48.652;9.292;2023-04-19T13:31:56;9.80;99.90
73643;DHT22;61938;48.652;9.292;2023-04-19T13:34:22;9.70;99.90
73643;DHT22;61938;48.652;9.292;2023-04-19T13:36:48;9.60;99.90
73643;DHT22;61938;48.652;9.292;2023-04-19T13:39:13;9.60;99.90
73643;DHT22;61938;48.652;9.292;2023-04-19T13:41:39;9.60;99.90
73643;DHT22;61938;48.652;9.292;2023-04-19T13:44:04;9.50;99.90
73643;DHT22;61938;48.652;9.292;2023-04-19T13:46:30;9.60;99.90
73643;DHT22;61938;48.652;9.292;2023-04-19T13:48:55;9.50;99.90
73643;DHT22;61938;48.652;9.292;2023-04-19T13:51:21;9.40;99.90
73643;DHT22;61938;48.652;9.292;2023-04-19T13:53:46;9.40;99.90
73643;DHT22;61938;48.652;9.292;2023-04-19T13:56:12;9.40;99.90
73643;DHT22;61938;48.652;9.292;2023-04-19T13:58:37;9.40;99.90
73643;DHT22;61938;48.652;9.292;2023-04-19T14:01:03;9.30;99.90
73643;DHT22;61938;48.652;9.292;2023-04-19T14:03:30;9.30;99.90
73643;DHT22;61938;48.652;9.292;2023-04-19T14:05:56;9.30;99.90
73643;DHT22;61938;48.652;9.292;2023-04-19T14:08:21;9.30;99.90
73643;DHT22;61938;48.652;9.292;2023-04-19T14:10:48;9.30;99.90
73643;DHT22;61938;48.652;9.292;2023-04-19T14:13:14;9.20;99.90
73643;DHT22;61938;48.652;9.292;2023-04-19T14:15:39;9.30;99.90
73643;DHT22;61938;48.652;9.292;2023-04-19T14:18:05;9.30;99.90
73643;DHT22;61938;48.652;9.292;2023-04-19T14:20:31;9.30;99.90
73643;DHT22;61938;48.652;9.292;2023-04-19T14:22:56;9.30;99.90
73643;DHT22;61938;48.652;9.292;2023-04-19T14:25:24;9.30;99.90
73643;DHT22;61938;48.652;9.292;2023-04-19T14:27:50;9.30;99.90
73643;DHT22;61938;48.652;9.292;2023-04-19T14:30:16;9.30;99.90
73643;DHT22;61938;48.652;9.292;2023-04-19T14:32:41;9.20;99.90
73643;DHT22;61938;48.652;9.292;2023-04-19T14:35:07;9.20;99.90
73643;DHT22;61938;48.652;9.292;2023-04-19T14:37:36;9.20;99.90
73643;DHT22;61938;48.652;9.292;2023-04-19T14:40:02;9.20;99.90
73643;DHT22;61938;48.652;9.292;2023-04-19T14:42:27;9.10;99.90
73643;DHT22;61938;48.652;9.292;2023-04-19T14:44:53;9.10;99.90
73643;DHT22;61938;48.652;9.292;2023-04-19T14:47:19;9.10;99.90
73643;DHT22;61938;48.652;9.292;2023-04-19T14:49:45;9.10;99.90
73643;DHT22;61938;48.652;9.292;2023-04-19T14:52:11;9.10;99.90
73643;DHT22;61938;48.652;9.292;2023-04-19T14:54:36;9.00;99.90
73643;DHT22;61938;48.652;9.292;2023-04-19T14:57:02;8.90;99.90
73643;DHT22;61938;48.652;9.292;2023-04-19T14:59:27;8.90;99.90
73643;DHT22;61938;48.652;9.292;2023-04-19T15:01:53;8.90;99.90
73643;DHT22;61938;48.652;9.292;2023-04-19T15:04:19;9.00;99.90
73643;DHT22;61938;48.652;9.292;2023-04-19T15:06:45;9.10;99.90
73643;DHT22;61938;48.652;9.292;2023-04-19T15:09:11;9.10;99.90
73643;DHT22;61938;48.652;9.292;2023-04-19T15:11:36;9.20;99.90
73643;DHT22;61938;48.652;9.292;2023-04-19T15:14:02;9.20;99.90
73643;DHT22;61938;48.652;9.292;2023-04-19T15:16:27;9.20;99.90
73643;DHT22;61938;48.652;9.292;2023-04-19T15:18:53;9.20;99.90
73643;DHT22;61938;48.652;9.292;2023-04-19T15:21:19;9.10;99.90
73643;DHT22;61938;48.652;9.292;2023-04-19T15:23:45;9.20;99.90
73643;DHT22;61938;48.652;9.292;2023-04-19T15:26:11;9.20;99.90
73643;DHT22;61938;48.652;9.292;2023-04-19T15:28:36;9.20;99.90
73643;DHT22;61938;48.652;9.292;2023-04-19T15:31:04;9.20;99.90
73643;DHT22;61938;48.652;9.292;2023-04-19T15:33:30;9.20;99.90
73643;DHT22;61938;48.652;9.292;2023-04-19T15:35:57;9.20;99.90
73643;DHT22;61938;48.652;9.292;2023-04-19T15:38:25;9.20;99.90
73643;DHT22;61938;48.652;9.292;2023-04-19T15:40:51;9.20;99.90
73643;DHT22;61938;48.652;9.292;2023-04-19T15:43:17;9.20;99.90
73643;DHT22;61938;48.652;9.292;2023-04-19T15:45:43;9.20;99.90
73643;DHT22;61938;48.652;9.292;2023-04-19T15:48:09;9.20;99.90
73643;DHT22;61938;48.652;9.292;2023-04-19T15:50:38;9.20;99.90